Terminal Aerodrome Forecast
Issued by NWS

Home | Current Version | Previous Version | Text Only | Print | Product List | Glossary On
Versions: 1 2 3 4 5 6 7 8 9 10 11 12 13 14
000
FTUS46 KSGX 251136
TAFSNA
TAF
KSNA 251136Z 2512/2612 VRB05KT P6SM SCT025 OVC045
      TEMPO 2512/2516 BKN025
     FM251700 23010G15KT P6SM SCT030 OVC045
     FM260000 25015G22KT P6SM VCSH BKN025 OVC035
     FM260300 28010G15KT P6SM VCSH BKN035
     FM260600 25006KT P6SM SCT035=

USA.gov is the U.S. government's official web portal to all federal, state and local government web resources and services.